createdAt,value
2022-11-29T13:36:46.482Z,3.85
2022-11-29T13:39:48.170Z,6.32
2022-11-29T13:42:41.693Z,5.75
2022-11-29T13:45:32.898Z,5.90
2022-11-29T13:48:27.673Z,6.15
2022-11-29T13:50:58.463Z,6.45
2022-11-29T13:53:48.161Z,6.75
2022-11-29T13:56:34.313Z,6.60
2022-11-29T13:59:09.504Z,5.85
2022-11-29T14:01:51.201Z,4.25
2022-11-29T14:04:22.870Z,6.28
2022-11-29T14:07:10.732Z,5.95
2022-11-29T14:09:58.065Z,5.90
2022-11-29T14:12:42.865Z,6.18
2022-11-29T14:15:38.047Z,5.55
2022-11-29T14:18:10.786Z,6.85
2022-11-29T14:20:44.992Z,5.60
2022-11-29T14:23:13.915Z,5.20
2022-11-29T14:25:57.360Z,6.28
2022-11-29T14:28:35.437Z,5.57
2022-11-29T14:31:09.565Z,4.70
2022-11-29T14:33:57.317Z,4.15
2022-11-29T14:36:51.516Z,6.40
2022-11-29T14:39:50.383Z,4.35
2022-11-29T14:42:25.096Z,3.95
2022-11-29T14:44:55.385Z,5.55
2022-11-29T14:47:35.947Z,5.22
2022-11-29T14:50:09.902Z,5.07
2022-11-29T14:52:51.860Z,5.13
2022-11-29T14:55:26.969Z,3.85
2022-11-29T14:58:07.094Z,4.72
2022-11-29T15:01:03.917Z,5.68
2022-11-29T15:03:48.942Z,4.68
2022-11-29T15:06:27.584Z,5.28
2022-11-29T15:09:03.480Z,4.80
2022-11-29T15:12:08.020Z,5.47
2022-11-29T15:14:42.571Z,3.63
2022-11-29T15:17:32.975Z,4.65
2022-11-29T15:20:49.992Z,5.20
2022-11-29T15:23:20.592Z,5.25
2022-11-29T15:25:55.582Z,4.55
2022-11-29T15:28:27.723Z,4.53
2022-11-29T15:31:12.964Z,5.00
2022-11-29T15:45:22.859Z,5.07
2022-11-29T15:47:51.669Z,5.55
2022-11-29T15:50:30.090Z,4.43
2022-11-29T15:53:04.170Z,4.47
2022-11-29T15:55:34.092Z,4.72
2022-11-29T15:58:08.633Z,5.25
2022-11-29T16:00:38.586Z,6.13
2022-11-29T16:03:17.689Z,4.32
2022-11-29T16:05:53.589Z,4.85
2022-11-29T16:08:22.648Z,4.85
2022-11-29T16:10:54.057Z,4.43
2022-11-29T16:13:41.850Z,6.32
2022-11-29T16:16:18.512Z,4.45
2022-11-29T16:18:48.951Z,4.97
2022-11-29T16:21:32.470Z,7.93
2022-11-29T16:24:23.504Z,5.60
2022-11-29T16:26:53.057Z,4.43
2022-11-29T16:29:28.245Z,4.40
2022-11-29T16:31:57.868Z,5.45
2022-11-29T16:34:34.738Z,4.28
2022-11-29T16:37:29.375Z,4.55
2022-11-29T16:40:02.778Z,3.67
2022-11-29T16:42:34.099Z,5.40
2022-11-29T16:45:26.457Z,7.38
2022-11-29T16:48:02.562Z,4.13
2022-11-29T16:50:33.099Z,3.63
2022-11-29T16:53:36.160Z,4.03
2022-11-29T16:56:19.718Z,4.68
2022-11-29T16:59:17.332Z,4.70
2022-11-29T17:01:42.552Z,4.15
2022-11-29T17:04:11.264Z,5.03
2022-11-29T17:06:40.140Z,4.63
2022-11-29T17:09:11.102Z,5.05
2022-11-29T17:11:40.232Z,3.95
2022-11-29T17:14:09.940Z,4.55
2022-11-29T17:16:39.975Z,4.72
2022-11-29T17:19:14.098Z,4.30
2022-11-29T17:21:43.729Z,3.97
2022-11-29T17:24:15.260Z,5.85
2022-11-29T17:26:45.151Z,4.70
2022-11-29T17:29:16.008Z,4.25
2022-11-29T17:31:46.884Z,4.10
2022-11-29T17:34:15.620Z,4.28
2022-11-29T17:36:46.050Z,4.30
2022-11-29T17:39:16.378Z,4.22
2022-11-29T17:41:45.059Z,4.97
2022-11-29T17:44:14.122Z,5.38
2022-11-29T17:46:42.606Z,5.15
2022-11-29T17:49:11.675Z,7.32
2022-11-29T17:51:56.440Z,8.18
2022-11-29T17:54:25.462Z,7.47
2022-11-29T17:56:54.083Z,9.60
2022-11-29T17:59:22.839Z,9.70
2022-11-29T18:01:51.990Z,7.90
2022-11-29T18:04:20.600Z,7.55
2022-11-29T18:06:52.311Z,8.20
2022-11-29T18:09:21.160Z,7.93
2022-11-29T18:11:50.704Z,7.95
2022-11-29T18:14:23.810Z,8.32
2022-11-29T18:16:53.365Z,7.70
2022-11-29T18:19:23.693Z,7.30
2022-11-29T18:21:52.775Z,6.50
2022-11-29T18:24:21.519Z,8.57
2022-11-29T18:26:50.123Z,4.32
2022-11-29T18:29:18.683Z,4.68
2022-11-29T18:31:47.723Z,4.75
2022-11-29T18:34:17.114Z,5.80
2022-11-29T18:36:48.292Z,8.02
2022-11-29T18:39:20.105Z,5.63
2022-11-29T18:41:50.909Z,9.27
2022-11-29T18:44:22.485Z,5.57
2022-11-29T18:46:51.276Z,3.08
2022-11-29T18:49:20.193Z,4.93
2022-11-29T18:51:50.001Z,5.00
2022-11-29T18:54:20.081Z,5.75
2022-11-29T18:56:52.524Z,3.95
2022-11-29T18:59:22.744Z,4.25
2022-11-29T19:01:51.778Z,5.38
2022-11-29T19:04:22.028Z,4.57
2022-11-29T19:06:50.996Z,5.10
2022-11-29T19:09:22.277Z,4.28
2022-11-29T19:11:54.111Z,4.60
2022-11-29T19:14:22.775Z,5.90
2022-11-29T19:16:51.873Z,4.22
2022-11-29T19:19:20.863Z,7.13
2022-11-29T19:21:50.119Z,5.30
2022-11-29T19:24:19.098Z,5.75
2022-11-29T19:26:50.413Z,5.90
2022-11-29T19:29:19.418Z,6.78
2022-11-29T19:31:51.279Z,4.50
2022-11-29T19:34:19.881Z,4.30
2022-11-29T19:36:48.668Z,5.95
2022-11-29T19:39:18.468Z,6.35
2022-11-29T19:41:48.810Z,5.88
2022-11-29T19:44:17.648Z,21.65
2022-11-29T19:46:49.148Z,55.08
2022-11-29T19:49:18.366Z,38.95
2022-11-29T19:51:47.026Z,30.50
2022-11-29T19:54:16.351Z,36.72
2022-11-29T19:56:45.255Z,9.98
2022-11-29T19:59:14.229Z,9.88
2022-11-29T20:01:43.351Z,6.97
2022-11-29T20:04:14.387Z,5.80
2022-11-29T20:06:43.567Z,4.80
2022-11-29T20:09:14.563Z,5.80
2022-11-29T20:11:43.162Z,6.32
2022-11-29T20:14:13.567Z,5.28
2022-11-29T20:16:43.370Z,4.55
2022-11-29T20:19:14.589Z,4.30
2022-11-29T20:21:50.067Z,5.07
2022-11-29T20:24:20.065Z,3.78
2022-11-29T20:26:50.543Z,4.13
2022-11-29T20:29:20.147Z,3.75
2022-11-29T20:31:50.942Z,4.63
2022-11-29T20:34:20.907Z,5.45
2022-11-29T20:37:11.038Z,4.38
2022-11-29T20:39:45.765Z,4.55
2022-11-29T20:42:23.603Z,5.15
2022-11-29T20:45:01.089Z,4.57
2022-11-29T20:47:46.109Z,3.60
2022-11-29T20:50:29.688Z,4.55
2022-11-29T20:53:26.454Z,4.15
2022-11-29T20:55:55.186Z,2.05
2022-11-29T20:58:24.165Z,5.43
2022-11-29T21:00:54.469Z,6.70
2022-11-29T21:03:24.249Z,4.60
2022-11-29T21:05:55.128Z,4.15
2022-11-29T21:08:27.528Z,3.63
2022-11-29T21:11:13.470Z,4.60
2022-11-29T21:13:42.647Z,6.50
2022-11-29T21:16:13.305Z,5.38
2022-11-29T21:18:42.553Z,4.50
2022-11-29T21:21:21.194Z,4.40
2022-11-29T21:24:00.079Z,4.00
2022-11-29T21:26:43.628Z,3.35
2022-11-29T21:29:18.327Z,4.65
2022-11-29T21:31:49.267Z,3.67
2022-11-29T21:34:18.394Z,4.82
2022-11-29T21:36:55.054Z,4.65
2022-11-29T21:39:26.430Z,3.20
2022-11-29T21:41:54.888Z,5.45
2022-11-29T21:44:23.813Z,4.28
2022-11-29T21:46:52.556Z,4.18
2022-11-29T21:49:21.267Z,5.00
2022-11-29T21:51:50.194Z,4.15
2022-11-29T21:54:19.028Z,5.10
2022-11-29T21:56:47.954Z,4.10
2022-11-29T21:59:16.830Z,4.57
2022-11-29T22:01:46.007Z,2.78
2022-11-29T22:04:15.344Z,3.85
2022-11-29T22:06:44.000Z,5.13
2022-11-29T22:09:12.620Z,4.70
2022-11-29T22:11:41.556Z,5.13
2022-11-29T22:14:15.903Z,5.63
2022-11-29T22:16:56.454Z,4.60
2022-11-29T22:19:28.155Z,4.47
2022-11-29T22:22:02.903Z,6.70
2022-11-29T22:24:35.346Z,4.15
2022-11-29T22:27:04.930Z,4.30
2022-11-29T22:29:33.647Z,2.97
2022-11-29T22:32:03.427Z,2.65
2022-11-29T22:34:32.540Z,3.53
2022-11-29T22:37:01.311Z,5.63
2022-11-29T22:39:30.068Z,3.25
2022-11-29T22:41:58.915Z,5.07
2022-11-29T22:44:27.749Z,4.68
2022-11-29T22:46:57.011Z,4.05
2022-11-29T22:49:25.787Z,3.08
2022-11-29T22:51:55.684Z,4.15
2022-11-29T22:54:24.446Z,3.40
2022-11-29T22:56:53.255Z,3.80
2022-11-29T22:59:24.742Z,5.03
2022-11-29T23:01:53.512Z,1.83
2022-11-29T23:04:22.224Z,5.68
2022-11-29T23:06:51.276Z,3.63
2022-11-29T23:09:22.975Z,3.22
2022-11-29T23:11:54.835Z,1.85
2022-11-29T23:14:25.182Z,4.47
2022-11-29T23:16:54.299Z,3.92
2022-11-29T23:19:23.199Z,3.08
2022-11-29T23:21:52.696Z,3.67
2022-11-29T23:24:21.542Z,3.35
2022-11-29T23:26:50.451Z,2.63
2022-11-29T23:29:20.665Z,3.65
2022-11-29T23:31:50.382Z,3.88
2022-11-29T23:34:19.083Z,4.65
2022-11-29T23:36:52.652Z,2.95
2022-11-29T23:39:22.028Z,3.58
2022-11-29T23:41:50.848Z,2.70
2022-11-29T23:44:19.857Z,6.50
2022-11-29T23:46:49.120Z,5.00
2022-11-29T23:49:18.001Z,6.32
2022-11-29T23:51:46.868Z,5.80
2022-11-29T23:54:15.619Z,5.93
2022-11-29T23:56:44.329Z,3.35
2022-11-29T23:59:13.351Z,4.80
